Terminal Aerodrome Forecast
Issued by NWS Cleveland, OH

Home | Current Version | Previous Version | Graphics & Text | Print | Product List | Glossary Off
Versions: 1 2 3 4 5 6 7 8 9 10 11 12 13 14 15

000
FTUS41 KCLE 191726
TAFYNG
TAF
KYNG 191726Z 1918/2018 23005KT P6SM OVC010
     FM192100 VRB05KT P6SM BKN100
     FM201200 10007KT 6SM -RA OVC015
     FM201400 14008KT 4SM -RA BR OVC007
      TEMPO 2014/2017 2SM -RA BR OVC004=

USA.gov is the U.S. government's official web portal to all federal, state and local government web resources and services.